sensor_id;sensor_type;location;lat;lon;timestamp;temperature;humidity
9083;DHT22;4577;48.704;9.000;2023-12-14T00:01:15;6.20;99.90
9083;DHT22;4577;48.704;9.000;2023-12-14T00:03:41;6.30;99.90
9083;DHT22;4577;48.704;9.000;2023-12-14T00:06:10;6.20;99.90
9083;DHT22;4577;48.704;9.000;2023-12-14T00:08:35;6.50;99.90
9083;DHT22;4577;48.704;9.000;2023-12-14T00:11:05;6.10;99.90
9083;DHT22;4577;48.704;9.000;2023-12-14T00:13:31;6.50;99.90
9083;DHT22;4577;48.704;9.000;2023-12-14T00:15:57;6.40;99.90
9083;DHT22;4577;48.704;9.000;2023-12-14T00:18:22;6.40;99.90
9083;DHT22;4577;48.704;9.000;2023-12-14T00:20:48;6.10;99.90
9083;DHT22;4577;48.704;9.000;2023-12-14T00:23:14;6.20;99.90
9083;DHT22;4577;48.704;9.000;2023-12-14T00:28:05;6.70;99.90
9083;DHT22;4577;48.704;9.000;2023-12-14T00:30:31;6.50;99.90
9083;DHT22;4577;48.704;9.000;2023-12-14T00:32:57;6.40;99.90
9083;DHT22;4577;48.704;9.000;2023-12-14T00:35:23;6.00;99.90
9083;DHT22;4577;48.704;9.000;2023-12-14T00:37:48;6.60;99.90
9083;DHT22;4577;48.704;9.000;2023-12-14T00:42:40;6.70;99.90
9083;DHT22;4577;48.704;9.000;2023-12-14T00:47:32;7.00;99.90
9083;DHT22;4577;48.704;9.000;2023-12-14T00:49:57;6.40;99.90
9083;DHT22;4577;48.704;9.000;2023-12-14T00:54:49;6.30;99.90
9083;DHT22;4577;48.704;9.000;2023-12-14T00:59:41;6.70;99.90
9083;DHT22;4577;48.704;9.000;2023-12-14T01:04:33;6.80;99.90
9083;DHT22;4577;48.704;9.000;2023-12-14T01:06:58;6.30;99.90
9083;DHT22;4577;48.704;9.000;2023-12-14T01:09:24;6.30;99.90
9083;DHT22;4577;48.704;9.000;2023-12-14T01:11:50;6.40;99.90
9083;DHT22;4577;48.704;9.000;2023-12-14T01:14:15;6.60;99.90
9083;DHT22;4577;48.704;9.000;2023-12-14T01:16:41;6.20;99.90
9083;DHT22;4577;48.704;9.000;2023-12-14T01:19:07;6.60;99.90
9083;DHT22;4577;48.704;9.000;2023-12-14T01:21:33;6.50;99.90
9083;DHT22;4577;48.704;9.000;2023-12-14T01:23:59;6.30;99.90
9083;DHT22;4577;48.704;9.000;2023-12-14T01:26:26;6.50;99.90
9083;DHT22;4577;48.704;9.000;2023-12-14T01:31:18;6.20;99.90
9083;DHT22;4577;48.704;9.000;2023-12-14T01:33:44;6.30;99.90
9083;DHT22;4577;48.704;9.000;2023-12-14T01:36:11;6.50;99.90
9083;DHT22;4577;48.704;9.000;2023-12-14T01:41:03;6.60;99.90
9083;DHT22;4577;48.704;9.000;2023-12-14T01:43:29;7.30;99.90
9083;DHT22;4577;48.704;9.000;2023-12-14T01:48:21;6.50;99.90
9083;DHT22;4577;48.704;9.000;2023-12-14T01:50:47;6.20;99.90
9083;DHT22;4577;48.704;9.000;2023-12-14T01:53:12;6.40;99.90
9083;DHT22;4577;48.704;9.000;2023-12-14T01:58:04;6.40;99.90
9083;DHT22;4577;48.704;9.000;2023-12-14T02:00:39;6.50;99.90
9083;DHT22;4577;48.704;9.000;2023-12-14T02:05:32;6.60;99.90
9083;DHT22;4577;48.704;9.000;2023-12-14T02:07:58;6.40;99.90
9083;DHT22;4577;48.704;9.000;2023-12-14T02:10:24;6.80;99.90
9083;DHT22;4577;48.704;9.000;2023-12-14T02:15:15;6.50;99.90
9083;DHT22;4577;48.704;9.000;2023-12-14T02:17:41;6.30;99.90
9083;DHT22;4577;48.704;9.000;2023-12-14T02:20:07;6.40;99.90
9083;DHT22;4577;48.704;9.000;2023-12-14T02:22:47;6.50;99.90
9083;DHT22;4577;48.704;9.000;2023-12-14T02:25:14;7.00;99.90
9083;DHT22;4577;48.704;9.000;2023-12-14T02:27:40;6.60;99.90
9083;DHT22;4577;48.704;9.000;2023-12-14T02:30:06;6.60;99.90
9083;DHT22;4577;48.704;9.000;2023-12-14T02:32:32;6.20;99.90
9083;DHT22;4577;48.704;9.000;2023-12-14T02:34:57;6.20;99.90
9083;DHT22;4577;48.704;9.000;2023-12-14T02:37:23;6.40;99.90
9083;DHT22;4577;48.704;9.000;2023-12-14T02:42:15;6.40;99.90
9083;DHT22;4577;48.704;9.000;2023-12-14T02:44:40;6.30;99.90
9083;DHT22;4577;48.704;9.000;2023-12-14T02:47:06;6.80;99.90
9083;DHT22;4577;48.704;9.000;2023-12-14T02:49:32;6.30;99.90
9083;DHT22;4577;48.704;9.000;2023-12-14T02:51:58;6.50;99.90
9083;DHT22;4577;48.704;9.000;2023-12-14T02:54:24;6.50;99.90
9083;DHT22;4577;48.704;9.000;2023-12-14T02:59:16;6.30;99.90
9083;DHT22;4577;48.704;9.000;2023-12-14T03:01:41;6.40;99.90
9083;DHT22;4577;48.704;9.000;2023-12-14T03:06:33;6.50;99.90
9083;DHT22;4577;48.704;9.000;2023-12-14T03:09:00;6.40;99.90
9083;DHT22;4577;48.704;9.000;2023-12-14T03:11:25;6.30;99.90
9083;DHT22;4577;48.704;9.000;2023-12-14T03:13:52;6.30;99.90
9083;DHT22;4577;48.704;9.000;2023-12-14T03:16:19;6.30;99.90
9083;DHT22;4577;48.704;9.000;2023-12-14T03:18:44;6.10;99.90
9083;DHT22;4577;48.704;9.000;2023-12-14T03:21:10;6.20;99.90
9083;DHT22;4577;48.704;9.000;2023-12-14T03:23:36;6.30;99.90
9083;DHT22;4577;48.704;9.000;2023-12-14T03:26:02;6.30;99.90
9083;DHT22;4577;48.704;9.000;2023-12-14T03:28:28;6.40;99.90
9083;DHT22;4577;48.704;9.000;2023-12-14T03:30:53;6.10;99.90
9083;DHT22;4577;48.704;9.000;2023-12-14T03:33:19;6.50;99.90
9083;DHT22;4577;48.704;9.000;2023-12-14T03:35:45;6.40;99.90
9083;DHT22;4577;48.704;9.000;2023-12-14T03:38:13;6.60;99.90
9083;DHT22;4577;48.704;9.000;2023-12-14T03:40:39;7.00;99.90
9083;DHT22;4577;48.704;9.000;2023-12-14T03:43:05;6.90;99.90
9083;DHT22;4577;48.704;9.000;2023-12-14T03:45:30;6.30;99.90
9083;DHT22;4577;48.704;9.000;2023-12-14T03:47:56;6.40;99.90
9083;DHT22;4577;48.704;9.000;2023-12-14T03:50:22;6.10;99.90
9083;DHT22;4577;48.704;9.000;2023-12-14T03:52:48;6.40;99.90
9083;DHT22;4577;48.704;9.000;2023-12-14T03:57:41;6.20;99.90
9083;DHT22;4577;48.704;9.000;2023-12-14T04:00:10;6.60;99.90
9083;DHT22;4577;48.704;9.000;2023-12-14T04:05:02;7.10;99.90
9083;DHT22;4577;48.704;9.000;2023-12-14T04:07:28;6.50;99.90
9083;DHT22;4577;48.704;9.000;2023-12-14T04:09:54;6.70;99.90
9083;DHT22;4577;48.704;9.000;2023-12-14T04:12:20;6.70;99.90
9083;DHT22;4577;48.704;9.000;2023-12-14T04:14:46;6.60;99.90
9083;DHT22;4577;48.704;9.000;2023-12-14T04:17:11;6.50;99.90
9083;DHT22;4577;48.704;9.000;2023-12-14T04:19:40;6.50;99.90
9083;DHT22;4577;48.704;9.000;2023-12-14T04:22:06;6.00;99.90
9083;DHT22;4577;48.704;9.000;2023-12-14T04:24:32;6.40;99.90
9083;DHT22;4577;48.704;9.000;2023-12-14T04:26:58;6.10;99.90
9083;DHT22;4577;48.704;9.000;2023-12-14T04:29:23;6.50;99.90
9083;DHT22;4577;48.704;9.000;2023-12-14T04:31:49;6.50;99.90
9083;DHT22;4577;48.704;9.000;2023-12-14T04:34:15;6.50;99.90
9083;DHT22;4577;48.704;9.000;2023-12-14T04:36:45;6.60;99.90
9083;DHT22;4577;48.704;9.000;2023-12-14T04:39:11;6.50;99.90
9083;DHT22;4577;48.704;9.000;2023-12-14T04:41:37;6.70;99.90
9083;DHT22;4577;48.704;9.000;2023-12-14T04:44:03;6.60;99.90
9083;DHT22;4577;48.704;9.000;2023-12-14T04:46:29;6.70;99.90
9083;DHT22;4577;48.704;9.000;2023-12-14T04:48:55;6.80;99.90
9083;DHT22;4577;48.704;9.000;2023-12-14T04:51:21;6.80;99.90
9083;DHT22;4577;48.704;9.000;2023-12-14T04:56:13;6.80;99.90
9083;DHT22;4577;48.704;9.000;2023-12-14T04:58:39;6.80;99.90
9083;DHT22;4577;48.704;9.000;2023-12-14T05:01:06;6.80;99.90
9083;DHT22;4577;48.704;9.000;2023-12-14T05:03:32;6.90;99.90
9083;DHT22;4577;48.704;9.000;2023-12-14T05:10:50;7.00;99.90
9083;DHT22;4577;48.704;9.000;2023-12-14T05:13:16;6.90;99.90
9083;DHT22;4577;48.704;9.000;2023-12-14T05:20:34;6.70;99.90
9083;DHT22;4577;48.704;9.000;2023-12-14T05:25:26;6.80;99.90
9083;DHT22;4577;48.704;9.000;2023-12-14T05:30:18;6.60;99.90
9083;DHT22;4577;48.704;9.000;2023-12-14T05:32:44;6.70;99.90
9083;DHT22;4577;48.704;9.000;2023-12-14T05:35:10;6.90;99.90
9083;DHT22;4577;48.704;9.000;2023-12-14T05:37:39;6.90;99.90
9083;DHT22;4577;48.704;9.000;2023-12-14T05:40:05;6.70;99.90
9083;DHT22;4577;48.704;9.000;2023-12-14T05:42:31;6.80;99.90
9083;DHT22;4577;48.704;9.000;2023-12-14T05:44:56;6.90;99.90
9083;DHT22;4577;48.704;9.000;2023-12-14T05:47:22;6.90;99.90
9083;DHT22;4577;48.704;9.000;2023-12-14T05:57:06;6.60;99.90
9083;DHT22;4577;48.704;9.000;2023-12-14T06:01:59;6.50;99.90
9083;DHT22;4577;48.704;9.000;2023-12-14T06:04:26;6.60;99.90
9083;DHT22;4577;48.704;9.000;2023-12-14T06:06:52;7.20;99.90
9083;DHT22;4577;48.704;9.000;2023-12-14T06:09:18;6.40;99.90
9083;DHT22;4577;48.704;9.000;2023-12-14T06:14:13;6.40;99.90
9083;DHT22;4577;48.704;9.000;2023-12-14T06:19:05;6.40;99.90
9083;DHT22;4577;48.704;9.000;2023-12-14T06:21:31;6.20;99.90
9083;DHT22;4577;48.704;9.000;2023-12-14T06:26:24;6.40;99.90
9083;DHT22;4577;48.704;9.000;2023-12-14T06:31:17;6.30;99.90
9083;DHT22;4577;48.704;9.000;2023-12-14T06:36:10;6.60;99.90
9083;DHT22;4577;48.704;9.000;2023-12-14T06:38:39;6.40;99.90
9083;DHT22;4577;48.704;9.000;2023-12-14T06:41:06;6.40;99.90
9083;DHT22;4577;48.704;9.000;2023-12-14T06:43:32;6.40;99.90
9083;DHT22;4577;48.704;9.000;2023-12-14T06:45:57;6.30;99.90
9083;DHT22;4577;48.704;9.000;2023-12-14T06:50:49;6.40;99.90
9083;DHT22;4577;48.704;9.000;2023-12-14T06:55:41;7.30;99.90
9083;DHT22;4577;48.704;9.000;2023-12-14T06:58:07;6.50;99.90
9083;DHT22;4577;48.704;9.000;2023-12-14T07:03:03;6.50;99.90
9083;DHT22;4577;48.704;9.000;2023-12-14T07:05:29;6.50;99.90
9083;DHT22;4577;48.704;9.000;2023-12-14T07:10:22;6.30;99.90
9083;DHT22;4577;48.704;9.000;2023-12-14T07:15:14;6.70;99.90
9083;DHT22;4577;48.704;9.000;2023-12-14T07:20:06;6.60;99.90
9083;DHT22;4577;48.704;9.000;2023-12-14T07:22:32;6.30;99.90
9083;DHT22;4577;48.704;9.000;2023-12-14T07:29:50;6.70;99.90
9083;DHT22;4577;48.704;9.000;2023-12-14T07:32:16;6.70;99.90
9083;DHT22;4577;48.704;9.000;2023-12-14T07:37:07;6.60;99.90
9083;DHT22;4577;48.704;9.000;2023-12-14T07:39:33;6.60;99.90
9083;DHT22;4577;48.704;9.000;2023-12-14T07:42:00;10.30;99.90
9083;DHT22;4577;48.704;9.000;2023-12-14T07:44:25;6.60;99.90
9083;DHT22;4577;48.704;9.000;2023-12-14T07:51:49;6.90;99.90
9083;DHT22;4577;48.704;9.000;2023-12-14T07:54:15;6.60;99.90
9083;DHT22;4577;48.704;9.000;2023-12-14T07:56:40;6.80;99.90
9083;DHT22;4577;48.704;9.000;2023-12-14T08:01:33;7.10;99.90
9083;DHT22;4577;48.704;9.000;2023-12-14T08:03:59;7.00;99.90
9083;DHT22;4577;48.704;9.000;2023-12-14T08:11:17;7.20;99.90
9083;DHT22;4577;48.704;9.000;2023-12-14T08:18:37;6.90;99.90
9083;DHT22;4577;48.704;9.000;2023-12-14T08:25:58;7.00;99.90
9083;DHT22;4577;48.704;9.000;2023-12-14T08:30:51;6.70;99.90
9083;DHT22;4577;48.704;9.000;2023-12-14T08:33:17;6.90;99.90
9083;DHT22;4577;48.704;9.000;2023-12-14T08:45:28;7.50;99.90
9083;DHT22;4577;48.704;9.000;2023-12-14T08:47:54;7.50;99.90
9083;DHT22;4577;48.704;9.000;2023-12-14T08:50:19;7.40;99.90
9083;DHT22;4577;48.704;9.000;2023-12-14T08:57:39;7.20;99.90
9083;DHT22;4577;48.704;9.000;2023-12-14T09:00:05;7.10;99.90
9083;DHT22;4577;48.704;9.000;2023-12-14T09:02:32;6.70;99.90
9083;DHT22;4577;48.704;9.000;2023-12-14T09:04:58;6.90;99.90
9083;DHT22;4577;48.704;9.000;2023-12-14T09:07:24;6.80;99.90
9083;DHT22;4577;48.704;9.000;2023-12-14T09:09:50;7.00;99.90
9083;DHT22;4577;48.704;9.000;2023-12-14T09:12:15;6.70;99.90
9083;DHT22;4577;48.704;9.000;2023-12-14T09:14:41;7.30;99.90
9083;DHT22;4577;48.704;9.000;2023-12-14T09:24:25;7.10;99.90
9083;DHT22;4577;48.704;9.000;2023-12-14T09:31:43;7.10;99.90
9083;DHT22;4577;48.704;9.000;2023-12-14T09:34:10;7.10;99.90
9083;DHT22;4577;48.704;9.000;2023-12-14T09:36:37;7.00;99.90
9083;DHT22;4577;48.704;9.000;2023-12-14T09:41:30;7.30;99.90
9083;DHT22;4577;48.704;9.000;2023-12-14T09:43:55;7.30;99.90
9083;DHT22;4577;48.704;9.000;2023-12-14T09:46:23;7.30;99.90
9083;DHT22;4577;48.704;9.000;2023-12-14T09:48:50;7.10;99.90
9083;DHT22;4577;48.704;9.000;2023-12-14T09:51:16;7.20;99.90
9083;DHT22;4577;48.704;9.000;2023-12-14T09:53:42;7.40;99.90
9083;DHT22;4577;48.704;9.000;2023-12-14T09:56:08;7.40;99.90
9083;DHT22;4577;48.704;9.000;2023-12-14T10:01:00;8.30;99.90
9083;DHT22;4577;48.704;9.000;2023-12-14T10:03:29;7.60;99.90
9083;DHT22;4577;48.704;9.000;2023-12-14T10:05:56;7.60;99.90
9083;DHT22;4577;48.704;9.000;2023-12-14T10:08:22;7.50;99.90
9083;DHT22;4577;48.704;9.000;2023-12-14T10:10:51;7.50;99.90
9083;DHT22;4577;48.704;9.000;2023-12-14T10:13:19;7.60;99.90
9083;DHT22;4577;48.704;9.000;2023-12-14T10:15:49;7.10;99.90
9083;DHT22;4577;48.704;9.000;2023-12-14T10:18:25;7.40;99.90
9083;DHT22;4577;48.704;9.000;2023-12-14T10:23:18;7.50;99.90
9083;DHT22;4577;48.704;9.000;2023-12-14T10:25:44;7.40;99.90
9083;DHT22;4577;48.704;9.000;2023-12-14T10:28:14;7.50;99.90
9083;DHT22;4577;48.704;9.000;2023-12-14T10:30:40;7.40;99.90
9083;DHT22;4577;48.704;9.000;2023-12-14T10:33:06;7.50;99.90
9083;DHT22;4577;48.704;9.000;2023-12-14T10:35:32;7.50;99.90
9083;DHT22;4577;48.704;9.000;2023-12-14T10:38:02;7.50;99.90
9083;DHT22;4577;48.704;9.000;2023-12-14T10:40:32;7.50;99.90
9083;DHT22;4577;48.704;9.000;2023-12-14T10:42:59;7.50;99.90
9083;DHT22;4577;48.704;9.000;2023-12-14T10:45:32;7.60;99.90
9083;DHT22;4577;48.704;9.000;2023-12-14T10:48:01;7.60;99.90
9083;DHT22;4577;48.704;9.000;2023-12-14T10:50:30;7.60;99.90
9083;DHT22;4577;48.704;9.000;2023-12-14T10:52:57;7.70;99.90
9083;DHT22;4577;48.704;9.000;2023-12-14T10:58:09;7.80;99.90
9083;DHT22;4577;48.704;9.000;2023-12-14T11:00:36;7.80;99.90
9083;DHT22;4577;48.704;9.000;2023-12-14T11:03:04;7.70;99.90
9083;DHT22;4577;48.704;9.000;2023-12-14T11:05:35;8.10;99.90
9083;DHT22;4577;48.704;9.000;2023-12-14T11:08:03;7.80;99.90
9083;DHT22;4577;48.704;9.000;2023-12-14T11:10:42;7.90;99.90
9083;DHT22;4577;48.704;9.000;2023-12-14T11:13:11;7.90;99.90
9083;DHT22;4577;48.704;9.000;2023-12-14T11:15:47;8.00;99.90
9083;DHT22;4577;48.704;9.000;2023-12-14T11:20:51;8.00;99.90
9083;DHT22;4577;48.704;9.000;2023-12-14T11:25:52;8.10;99.90
9083;DHT22;4577;48.704;9.000;2023-12-14T11:28:19;8.10;99.90
9083;DHT22;4577;48.704;9.000;2023-12-14T11:33:12;8.80;99.90
9083;DHT22;4577;48.704;9.000;2023-12-14T11:40:45;7.70;99.90
9083;DHT22;4577;48.704;9.000;2023-12-14T11:43:11;7.70;99.90
9083;DHT22;4577;48.704;9.000;2023-12-14T11:45:40;7.80;99.90
9083;DHT22;4577;48.704;9.000;2023-12-14T11:48:10;7.80;99.90
9083;DHT22;4577;48.704;9.000;2023-12-14T11:50:38;7.80;99.90
9083;DHT22;4577;48.704;9.000;2023-12-14T11:55:33;7.80;99.90
9083;DHT22;4577;48.704;9.000;2023-12-14T12:00:30;7.80;99.90
9083;DHT22;4577;48.704;9.000;2023-12-14T12:03:16;7.90;99.90
9083;DHT22;4577;48.704;9.000;2023-12-14T12:08:09;8.00;99.90
9083;DHT22;4577;48.704;9.000;2023-12-14T12:10:37;8.00;99.90
9083;DHT22;4577;48.704;9.000;2023-12-14T12:13:04;8.00;99.90
9083;DHT22;4577;48.704;9.000;2023-12-14T12:15:34;8.00;99.90
9083;DHT22;4577;48.704;9.000;2023-12-14T12:18:08;8.00;99.90
9083;DHT22;4577;48.704;9.000;2023-12-14T12:20:34;8.10;99.90
9083;DHT22;4577;48.704;9.000;2023-12-14T12:23:01;8.00;99.90
9083;DHT22;4577;48.704;9.000;2023-12-14T12:25:27;8.10;99.90
9083;DHT22;4577;48.704;9.000;2023-12-14T12:37:42;8.10;99.90
9083;DHT22;4577;48.704;9.000;2023-12-14T12:40:08;8.20;99.90
9083;DHT22;4577;48.704;9.000;2023-12-14T12:42:34;8.30;99.90
9083;DHT22;4577;48.704;9.000;2023-12-14T12:49:52;8.50;99.90
9083;DHT22;4577;48.704;9.000;2023-12-14T12:52:18;8.20;99.90
9083;DHT22;4577;48.704;9.000;2023-12-14T12:57:09;8.30;99.90
9083;DHT22;4577;48.704;9.000;2023-12-14T12:59:35;8.20;99.90
9083;DHT22;4577;48.704;9.000;2023-12-14T13:06:56;8.10;99.90
9083;DHT22;4577;48.704;9.000;2023-12-14T13:14:15;8.20;99.90
9083;DHT22;4577;48.704;9.000;2023-12-14T13:19:08;7.90;99.90
9083;DHT22;4577;48.704;9.000;2023-12-14T13:21:35;8.10;99.90
9083;DHT22;4577;48.704;9.000;2023-12-14T13:26:26;8.10;99.90
9083;DHT22;4577;48.704;9.000;2023-12-14T13:28:52;7.70;99.90
9083;DHT22;4577;48.704;9.000;2023-12-14T13:33:46;7.70;99.90
9083;DHT22;4577;48.704;9.000;2023-12-14T13:36:11;7.50;99.90
9083;DHT22;4577;48.704;9.000;2023-12-14T13:38:37;7.40;99.90
9083;DHT22;4577;48.704;9.000;2023-12-14T13:43:29;7.40;99.90
9083;DHT22;4577;48.704;9.000;2023-12-14T13:45:55;6.90;99.90
9083;DHT22;4577;48.704;9.000;2023-12-14T13:48:27;7.10;99.90
9083;DHT22;4577;48.704;9.000;2023-12-14T13:50:54;7.10;99.90
9083;DHT22;4577;48.704;9.000;2023-12-14T13:58:14;7.00;99.90
9083;DHT22;4577;48.704;9.000;2023-12-14T14:05:32;7.10;99.90
9083;DHT22;4577;48.704;9.000;2023-12-14T14:10:24;7.30;99.90
9083;DHT22;4577;48.704;9.000;2023-12-14T14:20:09;7.00;99.90
9083;DHT22;4577;48.704;9.000;2023-12-14T14:22:36;7.00;99.90
9083;DHT22;4577;48.704;9.000;2023-12-14T14:25:04;6.90;99.90
9083;DHT22;4577;48.704;9.000;2023-12-14T14:29:58;6.90;99.90
9083;DHT22;4577;48.704;9.000;2023-12-14T14:39:42;6.90;99.90
9083;DHT22;4577;48.704;9.000;2023-12-14T14:44:34;6.80;99.90
9083;DHT22;4577;48.704;9.000;2023-12-14T14:47:01;6.90;99.90
9083;DHT22;4577;48.704;9.000;2023-12-14T14:49:27;6.90;99.90
9083;DHT22;4577;48.704;9.000;2023-12-14T14:56:45;6.90;99.90
9083;DHT22;4577;48.704;9.000;2023-12-14T14:59:11;7.00;99.90
9083;DHT22;4577;48.704;9.000;2023-12-14T15:01:39;6.60;99.90
9083;DHT22;4577;48.704;9.000;2023-12-14T15:04:05;6.80;99.90
9083;DHT22;4577;48.704;9.000;2023-12-14T15:06:31;6.70;99.90
9083;DHT22;4577;48.704;9.000;2023-12-14T15:08:56;6.80;99.90
9083;DHT22;4577;48.704;9.000;2023-12-14T15:16:15;6.80;99.90
9083;DHT22;4577;48.704;9.000;2023-12-14T15:21:08;6.80;99.90
9083;DHT22;4577;48.704;9.000;2023-12-14T15:28:26;6.80;99.90
9083;DHT22;4577;48.704;9.000;2023-12-14T15:30:52;6.70;99.90
9083;DHT22;4577;48.704;9.000;2023-12-14T15:40:36;6.60;99.90
9083;DHT22;4577;48.704;9.000;2023-12-14T15:43:04;6.60;99.90
9083;DHT22;4577;48.704;9.000;2023-12-14T15:47:59;6.60;99.90
9083;DHT22;4577;48.704;9.000;2023-12-14T15:50:25;6.50;99.90
9083;DHT22;4577;48.704;9.000;2023-12-14T15:52:51;6.80;99.90
9083;DHT22;4577;48.704;9.000;2023-12-14T15:57:44;6.50;99.90
9083;DHT22;4577;48.704;9.000;2023-12-14T16:00:11;6.60;99.90
9083;DHT22;4577;48.704;9.000;2023-12-14T16:05:04;6.60;99.90
9083;DHT22;4577;48.704;9.000;2023-12-14T16:12:22;6.70;99.90
9083;DHT22;4577;48.704;9.000;2023-12-14T16:14:49;6.60;99.90
9083;DHT22;4577;48.704;9.000;2023-12-14T16:17:14;6.60;99.90
9083;DHT22;4577;48.704;9.000;2023-12-14T16:19:40;6.80;99.90
9083;DHT22;4577;48.704;9.000;2023-12-14T16:29:27;6.60;99.90
9083;DHT22;4577;48.704;9.000;2023-12-14T16:31:53;6.70;99.90
9083;DHT22;4577;48.704;9.000;2023-12-14T16:36:48;6.70;99.90
9083;DHT22;4577;48.704;9.000;2023-12-14T16:39:14;6.80;99.90
9083;DHT22;4577;48.704;9.000;2023-12-14T16:41:39;6.00;99.90
9083;DHT22;4577;48.704;9.000;2023-12-14T16:44:05;6.70;99.90
9083;DHT22;4577;48.704;9.000;2023-12-14T16:48:57;6.70;99.90
9083;DHT22;4577;48.704;9.000;2023-12-14T16:56:28;6.90;99.90
9083;DHT22;4577;48.704;9.000;2023-12-14T16:58:54;6.50;99.90
9083;DHT22;4577;48.704;9.000;2023-12-14T17:01:19;6.70;99.90
9083;DHT22;4577;48.704;9.000;2023-12-14T17:06:16;6.80;99.90
9083;DHT22;4577;48.704;9.000;2023-12-14T17:08:41;6.30;99.90
9083;DHT22;4577;48.704;9.000;2023-12-14T17:11:07;7.00;99.90
9083;DHT22;4577;48.704;9.000;2023-12-14T17:13:33;6.80;99.90
9083;DHT22;4577;48.704;9.000;2023-12-14T17:15:59;6.80;99.90
9083;DHT22;4577;48.704;9.000;2023-12-14T17:20:50;6.40;99.90
9083;DHT22;4577;48.704;9.000;2023-12-14T17:25:43;6.90;99.90
9083;DHT22;4577;48.704;9.000;2023-12-14T17:33:02;6.90;99.90
9083;DHT22;4577;48.704;9.000;2023-12-14T17:42:50;6.30;99.90
9083;DHT22;4577;48.704;9.000;2023-12-14T17:45:16;6.20;99.90
9083;DHT22;4577;48.704;9.000;2023-12-14T17:52:34;6.40;99.90
9083;DHT22;4577;48.704;9.000;2023-12-14T17:57:25;6.30;99.90
9083;DHT22;4577;48.704;9.000;2023-12-14T18:02:17;6.30;99.90
9083;DHT22;4577;48.704;9.000;2023-12-14T18:14:27;6.30;99.90
9083;DHT22;4577;48.704;9.000;2023-12-14T18:19:18;6.10;99.90
9083;DHT22;4577;48.704;9.000;2023-12-14T18:21:44;6.10;99.90
9083;DHT22;4577;48.704;9.000;2023-12-14T18:26:37;6.10;99.90
9083;DHT22;4577;48.704;9.000;2023-12-14T18:31:28;5.80;99.90
9083;DHT22;4577;48.704;9.000;2023-12-14T18:33:59;5.60;99.90
9083;DHT22;4577;48.704;9.000;2023-12-14T18:38:50;5.90;99.90
9083;DHT22;4577;48.704;9.000;2023-12-14T18:43:42;6.10;99.90
9083;DHT22;4577;48.704;9.000;2023-12-14T18:48:35;5.80;99.90
9083;DHT22;4577;48.704;9.000;2023-12-14T18:51:01;5.90;99.90
9083;DHT22;4577;48.704;9.000;2023-12-14T18:58:19;5.90;99.90
9083;DHT22;4577;48.704;9.000;2023-12-14T19:03:16;6.10;99.90
9083;DHT22;4577;48.704;9.000;2023-12-14T19:08:08;6.00;99.90
9083;DHT22;4577;48.704;9.000;2023-12-14T19:10:33;5.80;99.90
9083;DHT22;4577;48.704;9.000;2023-12-14T19:13:02;5.90;99.90
9083;DHT22;4577;48.704;9.000;2023-12-14T19:15:28;6.10;99.90
9083;DHT22;4577;48.704;9.000;2023-12-14T19:17:54;5.70;99.90
9083;DHT22;4577;48.704;9.000;2023-12-14T19:20:20;5.80;99.90
9083;DHT22;4577;48.704;9.000;2023-12-14T19:22:45;5.90;99.90
9083;DHT22;4577;48.704;9.000;2023-12-14T19:25:11;5.90;99.90
9083;DHT22;4577;48.704;9.000;2023-12-14T19:27:38;5.80;99.90
9083;DHT22;4577;48.704;9.000;2023-12-14T19:30:06;5.80;99.90
9083;DHT22;4577;48.704;9.000;2023-12-14T19:32:33;5.80;99.90
9083;DHT22;4577;48.704;9.000;2023-12-14T19:35:00;6.00;99.90
9083;DHT22;4577;48.704;9.000;2023-12-14T19:37:26;5.80;99.90
9083;DHT22;4577;48.704;9.000;2023-12-14T19:39:52;5.50;99.90
9083;DHT22;4577;48.704;9.000;2023-12-14T19:42:17;5.80;99.90
9083;DHT22;4577;48.704;9.000;2023-12-14T19:44:43;5.50;99.90
9083;DHT22;4577;48.704;9.000;2023-12-14T19:49:36;6.00;99.90
9083;DHT22;4577;48.704;9.000;2023-12-14T19:52:02;5.80;99.90
9083;DHT22;4577;48.704;9.000;2023-12-14T19:56:53;5.50;99.90
9083;DHT22;4577;48.704;9.000;2023-12-14T20:01:45;5.60;99.90
9083;DHT22;4577;48.704;9.000;2023-12-14T20:06:37;5.80;99.90
9083;DHT22;4577;48.704;9.000;2023-12-14T20:09:03;5.90;99.90
9083;DHT22;4577;48.704;9.000;2023-12-14T20:11:29;5.90;99.90
9083;DHT22;4577;48.704;9.000;2023-12-14T20:13:56;5.50;99.90
9083;DHT22;4577;48.704;9.000;2023-12-14T20:16:22;5.90;99.90
9083;DHT22;4577;48.704;9.000;2023-12-14T20:21:13;6.30;99.90
9083;DHT22;4577;48.704;9.000;2023-12-14T20:23:39;5.70;99.90
9083;DHT22;4577;48.704;9.000;2023-12-14T20:26:05;5.70;99.90
9083;DHT22;4577;48.704;9.000;2023-12-14T20:28:32;5.60;99.90
9083;DHT22;4577;48.704;9.000;2023-12-14T20:30:58;5.80;99.90
9083;DHT22;4577;48.704;9.000;2023-12-14T20:35:50;5.40;99.90
9083;DHT22;4577;48.704;9.000;2023-12-14T20:40:43;5.50;99.90
9083;DHT22;4577;48.704;9.000;2023-12-14T20:45:35;5.30;99.90
9083;DHT22;4577;48.704;9.000;2023-12-14T20:48:00;4.90;99.90
9083;DHT22;4577;48.704;9.000;2023-12-14T20:52:53;5.20;99.90
9083;DHT22;4577;48.704;9.000;2023-12-14T20:55:19;5.00;99.90
9083;DHT22;4577;48.704;9.000;2023-12-14T21:00:12;5.10;99.90
9083;DHT22;4577;48.704;9.000;2023-12-14T21:02:38;4.90;99.90
9083;DHT22;4577;48.704;9.000;2023-12-14T21:05:06;5.60;99.90
9083;DHT22;4577;48.704;9.000;2023-12-14T21:07:32;4.90;99.90
9083;DHT22;4577;48.704;9.000;2023-12-14T21:09:58;4.90;99.90
9083;DHT22;4577;48.704;9.000;2023-12-14T21:12:24;4.90;99.90
9083;DHT22;4577;48.704;9.000;2023-12-14T21:14:53;4.80;99.90
9083;DHT22;4577;48.704;9.000;2023-12-14T21:17:21;4.80;99.90
9083;DHT22;4577;48.704;9.000;2023-12-14T21:19:49;4.70;99.90
9083;DHT22;4577;48.704;9.000;2023-12-14T21:27:08;4.50;99.90
9083;DHT22;4577;48.704;9.000;2023-12-14T21:29:52;4.70;99.90
9083;DHT22;4577;48.704;9.000;2023-12-14T21:32:18;4.70;99.90
9083;DHT22;4577;48.704;9.000;2023-12-14T21:34:44;4.40;99.90
9083;DHT22;4577;48.704;9.000;2023-12-14T21:39:35;4.70;99.90
9083;DHT22;4577;48.704;9.000;2023-12-14T21:42:01;4.60;99.90
9083;DHT22;4577;48.704;9.000;2023-12-14T21:44:29;4.60;99.90
9083;DHT22;4577;48.704;9.000;2023-12-14T21:49:20;4.70;99.90
9083;DHT22;4577;48.704;9.000;2023-12-14T21:51:47;5.00;99.90
9083;DHT22;4577;48.704;9.000;2023-12-14T21:54:13;4.90;99.90
9083;DHT22;4577;48.704;9.000;2023-12-14T21:56:38;4.60;99.90
9083;DHT22;4577;48.704;9.000;2023-12-14T22:03:56;4.60;99.90
9083;DHT22;4577;48.704;9.000;2023-12-14T22:06:22;4.90;99.90
9083;DHT22;4577;48.704;9.000;2023-12-14T22:08:47;4.90;99.90
9083;DHT22;4577;48.704;9.000;2023-12-14T22:11:13;4.70;99.90
9083;DHT22;4577;48.704;9.000;2023-12-14T22:13:40;4.70;99.90
9083;DHT22;4577;48.704;9.000;2023-12-14T22:16:06;4.60;99.90
9083;DHT22;4577;48.704;9.000;2023-12-14T22:18:32;4.60;99.90
9083;DHT22;4577;48.704;9.000;2023-12-14T22:20:57;4.60;99.90
9083;DHT22;4577;48.704;9.000;2023-12-14T22:23:23;4.60;99.90
9083;DHT22;4577;48.704;9.000;2023-12-14T22:25:49;4.30;99.90
9083;DHT22;4577;48.704;9.000;2023-12-14T22:28:14;4.70;99.90
9083;DHT22;4577;48.704;9.000;2023-12-14T22:30:40;4.60;99.90
9083;DHT22;4577;48.704;9.000;2023-12-14T22:33:06;4.80;99.90
9083;DHT22;4577;48.704;9.000;2023-12-14T22:35:32;5.10;99.90
9083;DHT22;4577;48.704;9.000;2023-12-14T22:37:57;4.40;99.90
9083;DHT22;4577;48.704;9.000;2023-12-14T22:40:23;4.50;99.90
9083;DHT22;4577;48.704;9.000;2023-12-14T22:42:49;4.60;99.90
9083;DHT22;4577;48.704;9.000;2023-12-14T22:45:14;4.30;99.90
9083;DHT22;4577;48.704;9.000;2023-12-14T22:47:40;4.60;99.90
9083;DHT22;4577;48.704;9.000;2023-12-14T22:50:06;4.50;99.90
9083;DHT22;4577;48.704;9.000;2023-12-14T22:52:32;4.70;99.90
9083;DHT22;4577;48.704;9.000;2023-12-14T22:54:58;4.50;99.90
9083;DHT22;4577;48.704;9.000;2023-12-14T22:59:51;4.60;99.90
9083;DHT22;4577;48.704;9.000;2023-12-14T23:02:16;4.70;99.90